createdAt,value
2018-05-07T00:02:11.342Z,100661.34
2018-05-07T00:04:38.740Z,100661.49
2018-05-07T00:07:06.134Z,100662.64
2018-05-07T00:09:33.571Z,100660.87
2018-05-07T00:12:00.928Z,100660.00
2018-05-07T00:14:28.327Z,100654.75
2018-05-07T00:16:55.719Z,100646.05
2018-05-07T00:19:23.111Z,100646.34
2018-05-07T00:21:50.504Z,100646.19
2018-05-07T00:24:17.906Z,100644.37
2018-05-07T00:26:45.327Z,100637.05
2018-05-07T00:29:12.753Z,100644.30
2018-05-07T00:31:40.117Z,100636.83
2018-05-07T00:34:07.515Z,100634.85
2018-05-07T00:36:34.913Z,100633.28
2018-05-07T00:39:02.326Z,100630.95
2018-05-07T00:41:29.711Z,100631.36
2018-05-07T00:43:57.107Z,100638.47
2018-05-07T00:46:24.497Z,100636.98
2018-05-07T00:48:51.892Z,100636.95
2018-05-07T00:51:19.294Z,100630.92
2018-05-07T00:53:46.683Z,100635.41
2018-05-07T00:56:14.071Z,100632.56
2018-05-07T00:58:41.465Z,100641.45
2018-05-07T01:01:08.856Z,100638.02
2018-05-07T01:03:36.243Z,100640.36
2018-05-07T01:06:03.643Z,100641.31
2018-05-07T01:08:31.036Z,100647.30
2018-05-07T01:10:58.421Z,100644.67
2018-05-07T01:13:25.822Z,100646.52
2018-05-07T01:15:53.214Z,100648.53
2018-05-07T01:18:20.694Z,100642.10
2018-05-07T01:20:48.094Z,100645.77
2018-05-07T01:23:15.483Z,100648.98
2018-05-07T01:25:42.918Z,100640.97
2018-05-07T01:28:10.294Z,100642.08
2018-05-07T01:30:37.686Z,100648.45
2018-05-07T01:33:05.090Z,100645.42
2018-05-07T01:35:32.466Z,100642.14
2018-05-07T01:37:59.892Z,100644.67
2018-05-07T01:40:27.279Z,100643.26
2018-05-07T01:42:54.666Z,100657.16
2018-05-07T01:45:22.063Z,100659.95
2018-05-07T01:47:49.447Z,100655.23
2018-05-07T01:50:16.840Z,100654.28
2018-05-07T01:52:44.235Z,100650.52
2018-05-07T01:55:11.631Z,100648.59
2018-05-07T01:57:39.029Z,100646.08
2018-05-07T02:00:06.415Z,100647.89
2018-05-07T02:02:33.803Z,100648.09
2018-05-07T02:05:01.195Z,100645.41
2018-05-07T02:07:28.599Z,100642.77
2018-05-07T02:09:55.987Z,100638.30
2018-05-07T02:12:23.604Z,100635.62
2018-05-07T02:14:50.982Z,100631.30
2018-05-07T02:17:18.375Z,100634.29
2018-05-07T02:19:45.779Z,100634.20
2018-05-07T02:22:13.163Z,100632.48
2018-05-07T02:24:40.559Z,100636.91
2018-05-07T02:27:07.944Z,100629.45
2018-05-07T02:29:35.348Z,100632.43
2018-05-07T02:32:02.730Z,100633.94
2018-05-07T02:34:30.129Z,100633.44
2018-05-07T02:36:57.523Z,100634.61
2018-05-07T02:39:24.927Z,100632.55
2018-05-07T02:41:52.316Z,100633.18
2018-05-07T02:44:19.703Z,100637.58
2018-05-07T02:46:47.093Z,100638.13
2018-05-07T02:49:14.488Z,100635.48
2018-05-07T02:51:41.888Z,100634.98
2018-05-07T02:54:09.347Z,100631.96
2018-05-07T02:56:36.756Z,100633.09
2018-05-07T02:59:04.144Z,100638.75
2018-05-07T03:01:31.552Z,100630.45
2018-05-07T03:03:58.937Z,100636.94
2018-05-07T03:06:26.328Z,100636.01
2018-05-07T03:08:53.720Z,100640.03
2018-05-07T03:11:21.108Z,100643.13
2018-05-07T03:13:48.499Z,100636.59
2018-05-07T03:16:15.899Z,100637.16
2018-05-07T03:18:43.315Z,100638.54
2018-05-07T03:21:10.703Z,100635.14
2018-05-07T03:23:38.092Z,100630.15
2018-05-07T03:26:05.495Z,100627.63
2018-05-07T03:28:32.884Z,100627.30
2018-05-07T03:31:00.274Z,100620.84
2018-05-07T03:33:27.663Z,100621.84
2018-05-07T03:35:55.064Z,100622.31
2018-05-07T03:38:22.442Z,100616.06
2018-05-07T03:40:49.860Z,100610.66
2018-05-07T03:43:17.222Z,100607.48
2018-05-07T03:45:44.619Z,100608.86
2018-05-07T03:48:12.007Z,100604.91
2018-05-07T03:50:39.402Z,100600.67
2018-05-07T03:53:06.787Z,100597.14
2018-05-07T03:55:34.172Z,100597.64
2018-05-07T03:58:01.570Z,100597.47
2018-05-07T04:00:28.958Z,100589.05
2018-05-07T04:02:56.343Z,100596.78
2018-05-07T04:05:24.567Z,100589.73
2018-05-07T04:07:51.954Z,100588.72
2018-05-07T04:10:19.334Z,100588.03
2018-05-07T04:12:46.726Z,100586.19
2018-05-07T04:15:14.103Z,100584.20
2018-05-07T04:17:53.372Z,100585.03
2018-05-07T04:20:32.628Z,100582.59
2018-05-07T04:23:11.890Z,100585.06
2018-05-07T04:25:39.285Z,100583.52
2018-05-07T04:28:06.668Z,100590.17
2018-05-07T04:30:34.044Z,100588.27
2018-05-07T04:33:01.424Z,100587.23
2018-05-07T04:35:28.806Z,100584.49
2018-05-07T04:37:56.186Z,100581.19
2018-05-07T04:40:23.578Z,100585.78
2018-05-07T04:42:51.026Z,100590.31
2018-05-07T04:45:18.338Z,100586.34
2018-05-07T04:47:45.727Z,100592.30
2018-05-07T04:50:13.119Z,100589.11
2018-05-07T04:52:40.499Z,100590.24
2018-05-07T04:55:07.896Z,100583.77
2018-05-07T04:57:35.267Z,100584.73
2018-05-07T05:00:02.650Z,100590.02
2018-05-07T05:02:30.036Z,100593.15
2018-05-07T05:04:57.410Z,100591.25
2018-05-07T05:07:24.802Z,100587.94
2018-05-07T05:09:52.178Z,100592.84
2018-05-07T05:12:19.569Z,100601.06
2018-05-07T05:14:46.943Z,100590.73
2018-05-07T05:17:14.318Z,100601.78
2018-05-07T05:19:41.702Z,100597.03
2018-05-07T05:22:09.086Z,100600.25
2018-05-07T05:24:36.475Z,100597.52
2018-05-07T05:27:03.846Z,100606.69
2018-05-07T05:29:31.235Z,100604.58
2018-05-07T05:31:58.611Z,100607.70
2018-05-07T05:34:26.015Z,100608.92
2018-05-07T05:36:53.399Z,100604.50
2018-05-07T05:39:20.787Z,100606.37
2018-05-07T05:41:48.175Z,100600.48
2018-05-07T05:44:15.567Z,100596.91
2018-05-07T05:46:42.959Z,100590.98
2018-05-07T05:49:10.334Z,100600.02
2018-05-07T05:51:37.714Z,100594.17
2018-05-07T05:54:05.099Z,100595.52
2018-05-07T05:56:32.486Z,100594.06
2018-05-07T05:58:59.865Z,100595.45
2018-05-07T06:01:27.255Z,100605.92
2018-05-07T06:03:54.709Z,100599.00
2018-05-07T06:06:22.014Z,100599.67
2018-05-07T06:08:49.402Z,100608.83
2018-05-07T06:11:16.783Z,100608.41
2018-05-07T06:13:44.164Z,100603.67
2018-05-07T06:16:11.545Z,100600.44
2018-05-07T06:18:38.930Z,100611.36
2018-05-07T06:21:06.320Z,100602.86
2018-05-07T06:23:33.778Z,100607.34
2018-05-07T06:26:01.095Z,100611.81
2018-05-07T06:28:28.476Z,100609.91
2018-05-07T06:30:55.859Z,100606.37
2018-05-07T06:33:23.234Z,100606.37
2018-05-07T06:35:50.618Z,100608.97
2018-05-07T06:38:17.998Z,100607.45
2018-05-07T06:40:45.387Z,100608.72
2018-05-07T06:43:12.769Z,100609.08
2018-05-07T06:45:40.196Z,100607.16
2018-05-07T06:48:07.539Z,100600.06
2018-05-07T06:50:34.924Z,100599.54
2018-05-07T06:53:02.309Z,100609.51
2018-05-07T06:55:29.687Z,100602.24
2018-05-07T06:57:57.073Z,100608.84
2018-05-07T07:00:24.459Z,100604.11
2018-05-07T07:02:51.999Z,100603.39
2018-05-07T07:05:19.235Z,100610.37
2018-05-07T07:07:46.632Z,100608.34
2018-05-07T07:10:14.006Z,100611.69
2018-05-07T07:12:41.387Z,100607.94
2018-05-07T07:15:08.776Z,100606.33
2018-05-07T07:17:36.151Z,100608.66
2018-05-07T07:20:03.536Z,100602.28
2018-05-07T07:22:30.935Z,100606.65
2018-05-07T07:24:58.318Z,100604.42
2018-05-07T07:27:25.710Z,100601.20
2018-05-07T07:29:53.094Z,100606.13
2018-05-07T07:32:20.471Z,100610.16
2018-05-07T07:34:47.847Z,100605.84
2018-05-07T07:37:15.231Z,100605.01
2018-05-07T07:39:42.606Z,100603.77
2018-05-07T07:42:09.991Z,100606.20
2018-05-07T07:44:37.370Z,100605.86
2018-05-07T07:47:04.787Z,100608.17
2018-05-07T07:49:32.207Z,100602.81
2018-05-07T07:51:59.600Z,100599.70
2018-05-07T07:54:26.975Z,100599.80
2018-05-07T07:56:54.359Z,100598.64
2018-05-07T07:59:21.793Z,100593.86
2018-05-07T08:01:49.126Z,100599.76
2018-05-07T08:04:16.530Z,100597.02
2018-05-07T08:06:43.900Z,100594.32
2018-05-07T08:09:11.298Z,100594.10
2018-05-07T08:11:38.680Z,100583.36
2018-05-07T08:14:06.063Z,100594.11
2018-05-07T08:16:33.443Z,100598.13
2018-05-07T08:19:00.852Z,100594.63
2018-05-07T08:21:28.234Z,100595.88
2018-05-07T08:23:55.660Z,100591.43
2018-05-07T08:26:23.043Z,100592.26
2018-05-07T08:28:50.419Z,100592.94
2018-05-07T08:31:17.802Z,100594.44
2018-05-07T08:33:45.179Z,100598.83
2018-05-07T08:36:12.563Z,100590.16
2018-05-07T08:38:39.947Z,100593.95
2018-05-07T08:41:07.330Z,100590.41
2018-05-07T08:43:34.711Z,100595.13
2018-05-07T08:46:02.167Z,100592.13
2018-05-07T08:48:29.604Z,100591.56
2018-05-07T08:50:56.965Z,100585.67
2018-05-07T08:53:24.306Z,100587.65
2018-05-07T08:55:51.692Z,100588.26
2018-05-07T08:58:19.083Z,100589.27
2018-05-07T09:00:46.462Z,100590.90
2018-05-07T09:03:13.856Z,100582.07
2018-05-07T09:05:41.243Z,100583.51
2018-05-07T09:08:08.668Z,100580.69
2018-05-07T09:10:36.019Z,100570.72
2018-05-07T09:13:03.405Z,100571.03
2018-05-07T09:15:30.783Z,100571.04
2018-05-07T09:17:58.175Z,100574.17
2018-05-07T09:20:25.559Z,100572.84
2018-05-07T09:22:52.943Z,100573.24
2018-05-07T09:25:20.338Z,100569.70
2018-05-07T09:27:47.711Z,100566.70
2018-05-07T09:30:15.094Z,100559.98
2018-05-07T09:32:42.503Z,100555.84
2018-05-07T09:35:09.899Z,100559.32
2018-05-07T09:37:37.274Z,100556.92
2018-05-07T09:40:04.659Z,100559.69
2018-05-07T09:42:32.041Z,100560.55
2018-05-07T09:44:59.435Z,100556.16
2018-05-07T09:47:26.818Z,100562.19
2018-05-07T09:49:54.202Z,100558.31
2018-05-07T09:52:21.878Z,100555.56
2018-05-07T09:54:49.258Z,100551.75
2018-05-07T09:57:16.721Z,100548.38
2018-05-07T09:59:44.103Z,100541.95
2018-05-07T10:02:11.490Z,100540.56
2018-05-07T10:04:38.875Z,100541.11
2018-05-07T10:07:06.258Z,100539.88
2018-05-07T10:09:33.639Z,100541.52
2018-05-07T10:12:01.031Z,100537.56
2018-05-07T10:14:28.419Z,100539.62
2018-05-07T10:16:55.812Z,100527.97
2018-05-07T10:19:23.199Z,100532.75
2018-05-07T10:21:50.579Z,100535.09
2018-05-07T10:24:18.181Z,100532.50
2018-05-07T10:26:45.475Z,100527.52
2018-05-07T10:29:12.859Z,100532.92
2018-05-07T10:31:40.244Z,100532.67
2018-05-07T10:34:07.635Z,100528.69
2018-05-07T10:36:35.025Z,100524.88
2018-05-07T10:39:02.414Z,100523.58
2018-05-07T10:41:29.794Z,100524.06
2018-05-07T10:43:57.203Z,100513.47
2018-05-07T10:46:24.591Z,100519.64
2018-05-07T10:48:51.979Z,100512.48
2018-05-07T10:51:19.354Z,100514.02
2018-05-07T10:53:46.751Z,100511.15
2018-05-07T10:56:14.162Z,100507.13
2018-05-07T10:58:41.538Z,100497.20
2018-05-07T11:01:08.922Z,100500.41
2018-05-07T11:03:36.320Z,100491.56
2018-05-07T11:06:03.703Z,100496.59
2018-05-07T11:08:31.079Z,100489.62
2018-05-07T11:10:58.458Z,100484.38
2018-05-07T11:13:25.839Z,100478.75
2018-05-07T11:15:53.235Z,100472.40
2018-05-07T11:18:20.626Z,100472.67
2018-05-07T11:20:48.051Z,100476.48
2018-05-07T11:23:15.447Z,100476.24
2018-05-07T11:25:42.859Z,100471.55
2018-05-07T11:28:10.231Z,100468.80
2018-05-07T11:30:37.613Z,100468.40
2018-05-07T11:33:05.008Z,100458.95
2018-05-07T11:35:32.394Z,100464.14
2018-05-07T11:37:59.786Z,100460.05
2018-05-07T11:40:27.176Z,100458.38
2018-05-07T11:42:54.559Z,100455.80
2018-05-07T11:45:22.015Z,100456.23
2018-05-07T11:47:49.422Z,100453.82
2018-05-07T11:50:16.839Z,100458.95
2018-05-07T11:52:44.235Z,100455.15
2018-05-07T11:55:11.691Z,100445.88
2018-05-07T11:57:39.085Z,100446.29
2018-05-07T12:00:06.510Z,100444.64
2018-05-07T12:02:33.908Z,100445.34
2018-05-07T12:05:01.320Z,100438.21
2018-05-07T12:07:28.926Z,100435.95
2018-05-07T12:09:56.328Z,100433.70
2018-05-07T12:12:23.732Z,100435.52
2018-05-07T12:14:51.131Z,100430.25
2018-05-07T12:17:18.515Z,100415.30
2018-05-07T12:19:45.910Z,100416.61
2018-05-07T12:22:13.302Z,100410.34
2018-05-07T12:24:40.695Z,100411.02
2018-05-07T12:27:08.083Z,100413.74
2018-05-07T12:29:35.474Z,100412.91
2018-05-07T12:32:02.860Z,100409.41
2018-05-07T12:34:30.339Z,100405.12
2018-05-07T12:36:57.734Z,100411.02
2018-05-07T12:39:25.139Z,100404.97
2018-05-07T12:41:52.527Z,100396.16
2018-05-07T12:44:19.920Z,100390.45
2018-05-07T12:46:47.388Z,100387.29
2018-05-07T12:49:14.719Z,100379.86
2018-05-07T12:51:42.110Z,100382.16
2018-05-07T12:54:09.515Z,100377.70
2018-05-07T12:56:36.909Z,100375.31
2018-05-07T12:59:04.366Z,100378.47
2018-05-07T13:01:31.787Z,100370.29
2018-05-07T13:03:59.562Z,100365.11
2018-05-07T13:06:26.944Z,100354.52
2018-05-07T13:08:54.347Z,100358.20
2018-05-07T13:11:21.759Z,100353.86
2018-05-07T13:13:49.147Z,100353.75
2018-05-07T13:16:16.549Z,100342.52
2018-05-07T13:18:43.971Z,100344.54
2018-05-07T13:21:11.550Z,100346.52
2018-05-07T13:23:38.934Z,100343.48
2018-05-07T13:26:06.338Z,100336.41
2018-05-07T13:28:33.803Z,100334.27
2018-05-07T13:31:01.194Z,100334.88
2018-05-07T13:33:28.579Z,100335.37
2018-05-07T13:35:55.982Z,100327.26
2018-05-07T13:38:23.355Z,100321.42
2018-05-07T13:40:50.829Z,100319.02
2018-05-07T13:43:18.191Z,100322.31
2018-05-07T13:45:45.570Z,100320.34
2018-05-07T13:48:12.955Z,100318.19
2018-05-07T13:50:40.338Z,100309.70
2018-05-07T13:53:07.746Z,100300.37
2018-05-07T13:55:35.124Z,100295.08
2018-05-07T13:58:02.511Z,100300.97
2018-05-07T14:00:29.900Z,100299.82
2018-05-07T14:02:57.413Z,100292.87
2018-05-07T14:05:24.802Z,100284.27
2018-05-07T14:07:52.195Z,100281.00
2018-05-07T14:10:19.603Z,100271.64
2018-05-07T14:12:47.024Z,100265.33
2018-05-07T14:15:14.495Z,100266.14
2018-05-07T14:17:41.891Z,100260.13
2018-05-07T14:20:09.274Z,100253.91
2018-05-07T14:22:36.686Z,100250.34
2018-05-07T14:25:04.056Z,100252.37
2018-05-07T14:27:31.484Z,100251.87
2018-05-07T14:29:58.896Z,100243.14
2018-05-07T14:32:26.284Z,100244.47
2018-05-07T14:34:53.676Z,100241.11
2018-05-07T14:37:21.058Z,100222.26
2018-05-07T14:39:48.448Z,100225.50
2018-05-07T14:42:15.830Z,100227.20
2018-05-07T14:44:43.241Z,100235.75
2018-05-07T14:47:10.651Z,100231.34
2018-05-07T14:49:38.075Z,100229.33
2018-05-07T14:52:05.791Z,100222.09
2018-05-07T14:54:33.168Z,100222.30
2018-05-07T14:57:00.566Z,100222.53
2018-05-07T14:59:27.956Z,100219.98
2018-05-07T15:01:55.345Z,100222.54
2018-05-07T15:04:22.728Z,100218.91
2018-05-07T15:06:50.114Z,100220.93
2018-05-07T15:09:17.507Z,100215.30
2018-05-07T15:11:44.887Z,100207.56
2018-05-07T15:14:22.013Z,100205.38
2018-05-07T15:16:49.400Z,100202.91
2018-05-07T15:19:16.779Z,100197.79
2018-05-07T15:21:44.179Z,100201.18
2018-05-07T15:24:11.566Z,100197.14
2018-05-07T15:26:38.965Z,100193.58
2018-05-07T15:29:06.426Z,100196.95
2018-05-07T15:31:33.742Z,100190.34
2018-05-07T15:34:01.140Z,100191.86
2018-05-07T15:36:28.523Z,100192.07
2018-05-07T15:38:55.919Z,100183.80
2018-05-07T15:41:23.291Z,100182.75
2018-05-07T15:43:50.732Z,100183.02
2018-05-07T15:46:18.063Z,100176.50
2018-05-07T15:48:45.468Z,100176.62
2018-05-07T15:51:12.847Z,100170.66
2018-05-07T15:53:40.222Z,100171.19
2018-05-07T15:56:07.615Z,100174.66
2018-05-07T15:58:34.994Z,100162.31
2018-05-07T16:01:02.384Z,100166.01
2018-05-07T16:03:29.755Z,100162.47
2018-05-07T16:05:57.153Z,100156.11
2018-05-07T16:08:24.539Z,100157.48
2018-05-07T16:10:51.923Z,100153.94
2018-05-07T16:13:19.310Z,100148.70
2018-05-07T16:15:46.701Z,100154.20
2018-05-07T16:18:14.109Z,100148.56
2018-05-07T16:20:41.503Z,100154.22
2018-05-07T16:23:08.909Z,100156.52
2018-05-07T16:25:36.352Z,100152.41
2018-05-07T16:28:03.753Z,100146.88
2018-05-07T16:30:31.131Z,100143.00
2018-05-07T16:32:58.531Z,100139.31
2018-05-07T16:35:25.923Z,100134.75
2018-05-07T16:37:53.323Z,100132.05
2018-05-07T16:40:20.790Z,100131.17
2018-05-07T16:42:48.227Z,100122.15
2018-05-07T16:45:15.575Z,100116.92
2018-05-07T16:47:42.938Z,100123.53
2018-05-07T16:50:10.335Z,100118.97
2018-05-07T16:52:37.719Z,100118.48
2018-05-07T16:55:05.114Z,100117.03
2018-05-07T16:57:32.503Z,100110.17
2018-05-07T16:59:59.903Z,100112.69
2018-05-07T17:02:27.291Z,100107.94
2018-05-07T17:04:54.679Z,100111.59
2018-05-07T17:07:22.171Z,100109.85
2018-05-07T17:09:49.561Z,100108.39
2018-05-07T17:12:16.955Z,100109.30
2018-05-07T17:14:44.355Z,100109.38
2018-05-07T17:17:11.740Z,100105.33
2018-05-07T17:19:39.135Z,100101.63
2018-05-07T17:22:06.530Z,100094.62
2018-05-07T17:24:33.931Z,100098.83
2018-05-07T17:27:01.321Z,100095.75
2018-05-07T17:29:28.707Z,100092.23
2018-05-07T17:31:56.099Z,100094.63
2018-05-07T17:34:23.619Z,100087.30
2018-05-07T17:36:51.023Z,100090.44
2018-05-07T17:39:18.407Z,100093.41
2018-05-07T17:41:45.883Z,100091.59
2018-05-07T17:44:24.899Z,100083.93
2018-05-07T17:50:08.944Z,100091.20
2018-05-07T17:52:36.363Z,100094.80
2018-05-07T17:55:03.841Z,100095.33
2018-05-07T17:57:31.228Z,100091.53
2018-05-07T17:59:58.621Z,100094.55
2018-05-07T18:02:26.008Z,100088.37
2018-05-07T18:04:53.392Z,100093.23
2018-05-07T18:07:20.791Z,100088.49
2018-05-07T18:09:48.191Z,100088.18
2018-05-07T18:12:15.579Z,100090.02
2018-05-07T18:14:43.007Z,100082.58
2018-05-07T18:17:10.383Z,100087.13
2018-05-07T18:19:37.771Z,100087.69
2018-05-07T18:22:05.845Z,100086.17
2018-05-07T18:24:33.239Z,100087.77
2018-05-07T18:27:00.662Z,100088.97
2018-05-07T18:29:28.042Z,100085.52
2018-05-07T18:31:55.431Z,100084.11
2018-05-07T18:34:22.815Z,100084.35
2018-05-07T18:36:50.202Z,100084.80
2018-05-07T18:39:17.596Z,100090.27
2018-05-07T18:41:44.982Z,100084.06
2018-05-07T18:44:12.394Z,100078.27
2018-05-07T18:46:39.806Z,100086.56
2018-05-07T18:49:07.199Z,100088.70
2018-05-07T18:51:34.583Z,100088.87
2018-05-07T18:54:01.967Z,100089.41
2018-05-07T18:56:29.358Z,100084.81
2018-05-07T18:58:56.794Z,100089.52
2018-05-07T19:01:24.187Z,100090.36
2018-05-07T19:03:51.588Z,100091.73
2018-05-07T19:06:18.971Z,100086.77
2018-05-07T19:08:46.351Z,100092.97
2018-05-07T19:11:13.740Z,100097.84
2018-05-07T19:13:41.126Z,100094.97
2018-05-07T19:16:08.524Z,100098.88
2018-05-07T19:18:35.903Z,100101.33
2018-05-07T19:21:03.306Z,100102.47
2018-05-07T19:23:30.696Z,100104.74
2018-05-07T19:25:58.087Z,100107.82
2018-05-07T19:28:25.533Z,100103.83
2018-05-07T19:30:52.959Z,100098.36
2018-05-07T19:33:20.351Z,100102.41
2018-05-07T19:35:47.739Z,100108.32
2018-05-07T19:38:15.126Z,100110.02
2018-05-07T19:40:42.519Z,100110.61
2018-05-07T19:43:09.902Z,100107.63
2018-05-07T19:45:37.304Z,100101.87
2018-05-07T19:48:04.694Z,100105.70
2018-05-07T19:50:32.094Z,100108.33
2018-05-07T19:52:59.483Z,100113.87
2018-05-07T19:55:26.872Z,100112.25
2018-05-07T19:57:54.255Z,100115.53
2018-05-07T20:00:21.647Z,100112.87
2018-05-07T20:02:49.057Z,100112.56
2018-05-07T20:05:16.447Z,100114.19
2018-05-07T20:07:43.839Z,100123.19
2018-05-07T20:10:11.231Z,100119.16
2018-05-07T20:12:38.715Z,100114.13
2018-05-07T20:15:06.017Z,100120.94
2018-05-07T20:17:33.399Z,100117.55
2018-05-07T20:20:00.827Z,100119.89
2018-05-07T20:22:28.175Z,100119.93
2018-05-07T20:24:55.762Z,100121.84
2018-05-07T20:27:23.162Z,100120.38
2018-05-07T20:29:50.558Z,100120.56
2018-05-07T20:32:17.940Z,100127.72
2018-05-07T20:34:45.337Z,100124.06
2018-05-07T20:37:12.722Z,100122.45
2018-05-07T20:39:40.115Z,100116.20
2018-05-07T20:42:07.502Z,100117.56
2018-05-07T20:44:34.898Z,100114.58
2018-05-07T20:47:02.339Z,100116.65
2018-05-07T20:49:29.738Z,100117.56
2018-05-07T20:51:57.136Z,100123.53
2018-05-07T20:54:24.529Z,100122.74
2018-05-07T20:56:51.915Z,100118.27
2018-05-07T20:59:19.464Z,100115.14
2018-05-07T21:01:46.839Z,100116.53
2018-05-07T21:04:14.231Z,100117.63
2018-05-07T21:06:41.615Z,100118.33
2018-05-07T21:09:08.999Z,100118.73
2018-05-07T21:11:36.391Z,100113.44
2018-05-07T21:14:03.782Z,100115.32
2018-05-07T21:16:31.177Z,100118.34
2018-05-07T21:18:58.559Z,100114.67
2018-05-07T21:21:25.952Z,100118.23
2018-05-07T21:23:53.343Z,100117.96
2018-05-07T21:26:20.763Z,100109.70
2018-05-07T21:28:48.114Z,100114.45
2018-05-07T21:31:15.502Z,100114.20
2018-05-07T21:33:42.894Z,100115.56
2018-05-07T21:36:10.287Z,100114.88
2018-05-07T21:38:37.684Z,100116.91
2018-05-07T21:41:05.072Z,100117.58
2018-05-07T21:43:32.542Z,100111.11
2018-05-07T21:45:59.859Z,100112.05
2018-05-07T21:48:27.246Z,100114.50
2018-05-07T21:50:54.630Z,100108.02
2018-05-07T21:53:22.043Z,100110.42
2018-05-07T21:55:49.431Z,100110.19
2018-05-07T21:58:16.819Z,100108.84
2018-05-07T22:00:44.203Z,100110.48
2018-05-07T22:03:11.612Z,100105.47
2018-05-07T22:05:38.991Z,100102.20
2018-05-07T22:08:06.461Z,100103.31
2018-05-07T22:10:33.778Z,100100.46
2018-05-07T22:13:01.175Z,100100.05
2018-05-07T22:15:28.660Z,100098.68
2018-05-07T22:17:56.007Z,100096.12
2018-05-07T22:20:23.387Z,100101.67
2018-05-07T22:22:50.778Z,100098.58
2018-05-07T22:25:18.167Z,100104.92
2018-05-07T22:27:45.579Z,100104.52
2018-05-07T22:30:12.965Z,100104.09
2018-05-07T22:32:40.358Z,100105.06
2018-05-07T22:35:07.755Z,100104.09
2018-05-07T22:37:35.139Z,100111.00
2018-05-07T22:40:02.535Z,100099.90
2018-05-07T22:42:29.927Z,100095.17
2018-05-07T22:44:57.322Z,100099.90
2018-05-07T22:47:24.706Z,100098.42
2018-05-07T22:49:52.103Z,100093.55
2018-05-07T22:52:19.554Z,100090.30
2018-05-07T22:54:46.967Z,100094.08
2018-05-07T22:57:14.359Z,100095.30
2018-05-07T22:59:41.751Z,100092.17
2018-05-07T23:02:09.141Z,100086.34
2018-05-07T23:04:36.807Z,100083.77
2018-05-07T23:07:04.194Z,100084.59
2018-05-07T23:09:31.587Z,100081.98
2018-05-07T23:11:58.987Z,100082.98
2018-05-07T23:14:26.371Z,100083.20
2018-05-07T23:16:53.768Z,100078.61
2018-05-07T23:19:21.153Z,100074.53
2018-05-07T23:21:48.556Z,100075.34
2018-05-07T23:24:15.948Z,100075.23
2018-05-07T23:26:43.335Z,100076.56
2018-05-07T23:29:10.731Z,100074.80
2018-05-07T23:31:38.123Z,100069.64
2018-05-07T23:34:05.516Z,100073.42
2018-05-07T23:36:32.907Z,100069.77
2018-05-07T23:39:00.299Z,100069.20
2018-05-07T23:41:27.695Z,100073.55
2018-05-07T23:43:55.083Z,100061.50
2018-05-07T23:46:22.475Z,100056.66
2018-05-07T23:48:49.866Z,100059.34
2018-05-07T23:51:17.255Z,100058.57
2018-05-07T23:53:44.647Z,100062.50
2018-05-07T23:56:12.029Z,100055.45
2018-05-07T23:58:39.414Z,100053.84
